sensor_id;sensor_type;location;lat;lon;timestamp;pressure;altitude;pressure_sealevel;temperature;humidity
65614;BME280;52283;49.292;10.572;2023-07-20T00:01:20;96243.59;;;17.49;100.00
65614;BME280;52283;49.292;10.572;2023-07-20T00:03:46;96229.75;;;17.66;100.00
65614;BME280;52283;49.292;10.572;2023-07-20T00:06:20;96222.56;;;17.65;100.00
65614;BME280;52283;49.292;10.572;2023-07-20T00:08:46;96231.91;;;17.74;100.00
65614;BME280;52283;49.292;10.572;2023-07-20T00:11:13;96236.50;;;17.63;100.00
65614;BME280;52283;49.292;10.572;2023-07-20T00:13:41;96238.03;;;17.64;100.00
65614;BME280;52283;49.292;10.572;2023-07-20T00:16:07;96241.81;;;17.67;100.00
65614;BME280;52283;49.292;10.572;2023-07-20T00:18:34;96242.66;;;17.75;100.00
65614;BME280;52283;49.292;10.572;2023-07-20T00:21:01;96242.66;;;17.83;100.00
65614;BME280;52283;49.292;10.572;2023-07-20T00:23:28;96239.34;;;17.92;100.00
65614;BME280;52283;49.292;10.572;2023-07-20T00:25:54;96239.88;;;17.90;100.00
65614;BME280;52283;49.292;10.572;2023-07-20T00:28:21;96244.38;;;17.86;100.00
65614;BME280;52283;49.292;10.572;2023-07-20T00:30:48;96244.72;;;17.75;100.00
65614;BME280;52283;49.292;10.572;2023-07-20T00:33:16;96237.22;;;17.85;100.00
65614;BME280;52283;49.292;10.572;2023-07-20T00:35:43;96234.38;;;17.77;100.00
65614;BME280;52283;49.292;10.572;2023-07-20T00:38:10;96235.72;;;17.84;100.00
65614;BME280;52283;49.292;10.572;2023-07-20T00:40:37;96228.94;;;17.87;100.00
65614;BME280;52283;49.292;10.572;2023-07-20T00:43:03;96235.53;;;17.89;100.00
65614;BME280;52283;49.292;10.572;2023-07-20T00:45:30;96239.63;;;17.73;100.00
65614;BME280;52283;49.292;10.572;2023-07-20T00:47:59;96238.44;;;17.68;100.00
65614;BME280;52283;49.292;10.572;2023-07-20T00:50:27;96231.06;;;17.65;100.00
65614;BME280;52283;49.292;10.572;2023-07-20T00:52:54;96235.09;;;17.70;100.00
65614;BME280;52283;49.292;10.572;2023-07-20T00:55:22;96239.09;;;17.54;100.00
65614;BME280;52283;49.292;10.572;2023-07-20T00:57:50;96241.56;;;17.57;100.00
65614;BME280;52283;49.292;10.572;2023-07-20T01:00:16;96238.59;;;17.63;100.00
65614;BME280;52283;49.292;10.572;2023-07-20T01:02:44;96229.06;;;17.74;100.00
65614;BME280;52283;49.292;10.572;2023-07-20T01:05:12;96235.09;;;17.70;100.00
65614;BME280;52283;49.292;10.572;2023-07-20T01:07:44;96243.03;;;17.79;100.00
65614;BME280;52283;49.292;10.572;2023-07-20T01:10:15;96251.94;;;17.62;100.00
65614;BME280;52283;49.292;10.572;2023-07-20T01:12:47;96251.06;;;17.67;100.00
65614;BME280;52283;49.292;10.572;2023-07-20T01:15:14;96252.25;;;17.72;100.00
65614;BME280;52283;49.292;10.572;2023-07-20T01:17:40;96251.69;;;17.74;100.00
65614;BME280;52283;49.292;10.572;2023-07-20T01:20:09;96245.75;;;17.64;100.00
65614;BME280;52283;49.292;10.572;2023-07-20T01:22:52;96240.41;;;17.81;100.00
65614;BME280;52283;49.292;10.572;2023-07-20T01:25:34;96258.16;;;17.61;100.00
65614;BME280;52283;49.292;10.572;2023-07-20T01:28:37;96251.72;;;17.53;100.00
65614;BME280;52283;49.292;10.572;2023-07-20T01:31:17;96252.41;;;17.46;100.00
65614;BME280;52283;49.292;10.572;2023-07-20T01:33:47;96240.66;;;17.34;100.00
65614;BME280;52283;49.292;10.572;2023-07-20T01:36:16;96251.81;;;17.40;100.00
65614;BME280;52283;49.292;10.572;2023-07-20T01:38:44;96246.03;;;17.24;100.00
65614;BME280;52283;49.292;10.572;2023-07-20T01:41:11;96245.09;;;17.22;100.00
65614;BME280;52283;49.292;10.572;2023-07-20T01:43:38;96236.94;;;17.11;100.00
65614;BME280;52283;49.292;10.572;2023-07-20T01:46:05;96235.81;;;17.14;100.00
65614;BME280;52283;49.292;10.572;2023-07-20T01:48:32;96237.56;;;16.96;100.00
65614;BME280;52283;49.292;10.572;2023-07-20T01:50:59;96244.91;;;16.99;100.00
65614;BME280;52283;49.292;10.572;2023-07-20T01:53:25;96247.59;;;16.84;100.00
65614;BME280;52283;49.292;10.572;2023-07-20T01:55:52;96253.03;;;16.82;100.00
65614;BME280;52283;49.292;10.572;2023-07-20T01:58:19;96248.28;;;16.76;100.00
65614;BME280;52283;49.292;10.572;2023-07-20T02:00:46;96253.31;;;16.70;100.00
65614;BME280;52283;49.292;10.572;2023-07-20T02:03:12;96258.28;;;16.77;100.00
65614;BME280;52283;49.292;10.572;2023-07-20T02:05:42;96253.72;;;16.74;100.00
65614;BME280;52283;49.292;10.572;2023-07-20T02:08:08;96264.06;;;16.72;100.00
65614;BME280;52283;49.292;10.572;2023-07-20T02:10:35;96262.13;;;16.67;100.00
65614;BME280;52283;49.292;10.572;2023-07-20T02:13:01;96268.06;;;16.63;100.00
65614;BME280;52283;49.292;10.572;2023-07-20T02:15:28;96259.81;;;16.65;100.00
65614;BME280;52283;49.292;10.572;2023-07-20T02:17:54;96267.69;;;16.80;100.00
65614;BME280;52283;49.292;10.572;2023-07-20T02:20:21;96275.34;;;16.72;100.00
65614;BME280;52283;49.292;10.572;2023-07-20T02:22:49;96273.84;;;16.71;100.00
65614;BME280;52283;49.292;10.572;2023-07-20T02:25:15;96271.66;;;16.64;100.00
65614;BME280;52283;49.292;10.572;2023-07-20T02:27:41;96273.84;;;16.58;100.00
65614;BME280;52283;49.292;10.572;2023-07-20T02:30:08;96280.44;;;16.60;100.00
65614;BME280;52283;49.292;10.572;2023-07-20T02:32:36;96290.00;;;16.57;100.00
65614;BME280;52283;49.292;10.572;2023-07-20T02:35:03;96280.25;;;16.58;100.00
65614;BME280;52283;49.292;10.572;2023-07-20T02:37:30;96275.84;;;16.50;100.00
65614;BME280;52283;49.292;10.572;2023-07-20T02:39:58;96280.31;;;16.45;100.00
65614;BME280;52283;49.292;10.572;2023-07-20T02:42:24;96287.47;;;16.46;100.00
65614;BME280;52283;49.292;10.572;2023-07-20T02:44:51;96292.88;;;16.44;100.00
65614;BME280;52283;49.292;10.572;2023-07-20T02:47:17;96288.97;;;16.47;100.00
65614;BME280;52283;49.292;10.572;2023-07-20T02:49:44;96294.19;;;16.43;100.00
65614;BME280;52283;49.292;10.572;2023-07-20T02:52:10;96299.81;;;16.43;100.00
65614;BME280;52283;49.292;10.572;2023-07-20T02:54:37;96296.25;;;16.42;100.00
65614;BME280;52283;49.292;10.572;2023-07-20T02:57:05;96293.41;;;16.42;100.00
65614;BME280;52283;49.292;10.572;2023-07-20T02:59:32;96298.41;;;16.50;100.00
65614;BME280;52283;49.292;10.572;2023-07-20T03:01:58;96303.88;;;16.34;100.00
65614;BME280;52283;49.292;10.572;2023-07-20T03:04:26;96304.41;;;16.33;100.00
65614;BME280;52283;49.292;10.572;2023-07-20T03:06:52;96310.47;;;16.37;100.00
65614;BME280;52283;49.292;10.572;2023-07-20T03:09:19;96306.47;;;16.32;100.00
65614;BME280;52283;49.292;10.572;2023-07-20T03:11:45;96307.66;;;16.24;100.00
65614;BME280;52283;49.292;10.572;2023-07-20T03:14:13;96306.06;;;16.28;100.00
65614;BME280;52283;49.292;10.572;2023-07-20T03:16:39;96305.84;;;16.26;100.00
65614;BME280;52283;49.292;10.572;2023-07-20T03:19:06;96313.22;;;16.16;100.00
65614;BME280;52283;49.292;10.572;2023-07-20T03:21:32;96314.84;;;16.25;100.00
65614;BME280;52283;49.292;10.572;2023-07-20T03:23:59;96308.22;;;16.22;100.00
65614;BME280;52283;49.292;10.572;2023-07-20T03:26:25;96307.22;;;16.33;100.00
65614;BME280;52283;49.292;10.572;2023-07-20T03:28:52;96314.50;;;16.28;100.00
65614;BME280;52283;49.292;10.572;2023-07-20T03:31:20;96321.00;;;16.23;100.00
65614;BME280;52283;49.292;10.572;2023-07-20T03:33:46;96320.50;;;16.25;100.00
65614;BME280;52283;49.292;10.572;2023-07-20T03:36:13;96325.47;;;16.19;100.00
65614;BME280;52283;49.292;10.572;2023-07-20T03:38:39;96317.22;;;16.21;100.00
65614;BME280;52283;49.292;10.572;2023-07-20T03:41:06;96329.72;;;16.12;100.00
65614;BME280;52283;49.292;10.572;2023-07-20T03:43:32;96322.91;;;16.07;100.00
65614;BME280;52283;49.292;10.572;2023-07-20T03:45:58;96323.31;;;16.11;100.00
65614;BME280;52283;49.292;10.572;2023-07-20T03:48:26;96321.47;;;16.14;100.00
65614;BME280;52283;49.292;10.572;2023-07-20T03:50:53;96325.47;;;16.19;100.00
65614;BME280;52283;49.292;10.572;2023-07-20T03:53:20;96329.38;;;16.15;100.00
65614;BME280;52283;49.292;10.572;2023-07-20T03:55:47;96324.50;;;16.29;100.00
65614;BME280;52283;49.292;10.572;2023-07-20T03:58:14;96332.63;;;16.20;100.00
65614;BME280;52283;49.292;10.572;2023-07-20T04:00:44;96329.47;;;16.23;100.00
65614;BME280;52283;49.292;10.572;2023-07-20T04:03:10;96340.22;;;16.25;100.00
65614;BME280;52283;49.292;10.572;2023-07-20T04:05:38;96346.38;;;16.23;100.00
65614;BME280;52283;49.292;10.572;2023-07-20T04:08:05;96342.59;;;16.21;100.00
65614;BME280;52283;49.292;10.572;2023-07-20T04:10:31;96349.00;;;16.21;100.00
65614;BME280;52283;49.292;10.572;2023-07-20T04:12:58;96356.06;;;16.28;100.00
65614;BME280;52283;49.292;10.572;2023-07-20T04:15:24;96354.75;;;16.15;100.00
65614;BME280;52283;49.292;10.572;2023-07-20T04:17:51;96350.97;;;16.26;100.00
65614;BME280;52283;49.292;10.572;2023-07-20T04:20:17;96360.28;;;16.21;100.00
65614;BME280;52283;49.292;10.572;2023-07-20T04:22:45;96357.78;;;16.17;100.00
65614;BME280;52283;49.292;10.572;2023-07-20T04:25:12;96358.97;;;16.22;100.00
65614;BME280;52283;49.292;10.572;2023-07-20T04:27:38;96360.38;;;16.29;100.00
65614;BME280;52283;49.292;10.572;2023-07-20T04:30:07;96360.72;;;16.25;100.00
65614;BME280;52283;49.292;10.572;2023-07-20T04:32:34;96360.69;;;16.38;100.00
65614;BME280;52283;49.292;10.572;2023-07-20T04:35:00;96354.84;;;16.36;100.00
65614;BME280;52283;49.292;10.572;2023-07-20T04:37:27;96359.50;;;16.34;100.00
65614;BME280;52283;49.292;10.572;2023-07-20T04:39:54;96357.78;;;16.31;100.00
65614;BME280;52283;49.292;10.572;2023-07-20T04:42:21;96360.06;;;16.19;100.00
65614;BME280;52283;49.292;10.572;2023-07-20T04:44:47;96358.13;;;16.14;100.00
65614;BME280;52283;49.292;10.572;2023-07-20T04:47:14;96357.34;;;16.27;100.00
65614;BME280;52283;49.292;10.572;2023-07-20T04:49:40;96356.16;;;16.22;100.00
65614;BME280;52283;49.292;10.572;2023-07-20T04:52:07;96362.13;;;16.32;100.00
65614;BME280;52283;49.292;10.572;2023-07-20T04:54:33;96350.28;;;16.33;100.00
65614;BME280;52283;49.292;10.572;2023-07-20T04:57:01;96362.84;;;16.45;100.00
65614;BME280;52283;49.292;10.572;2023-07-20T04:59:28;96362.31;;;16.47;100.00
65614;BME280;52283;49.292;10.572;2023-07-20T05:01:54;96368.81;;;16.42;100.00
65614;BME280;52283;49.292;10.572;2023-07-20T05:04:21;96368.59;;;16.40;100.00
65614;BME280;52283;49.292;10.572;2023-07-20T05:06:47;96369.25;;;16.46;100.00
65614;BME280;52283;49.292;10.572;2023-07-20T05:09:13;96371.63;;;16.42;100.00
65614;BME280;52283;49.292;10.572;2023-07-20T05:11:40;96376.97;;;16.45;100.00
65614;BME280;52283;49.292;10.572;2023-07-20T05:14:08;96377.78;;;16.54;100.00
65614;BME280;52283;49.292;10.572;2023-07-20T05:16:35;96374.72;;;16.65;100.00
65614;BME280;52283;49.292;10.572;2023-07-20T05:19:01;96374.84;;;16.72;100.00
65614;BME280;52283;49.292;10.572;2023-07-20T05:21:27;96377.75;;;16.80;100.00
65614;BME280;52283;49.292;10.572;2023-07-20T05:23:54;96372.31;;;16.82;100.00
65614;BME280;52283;49.292;10.572;2023-07-20T05:26:20;96377.34;;;16.76;100.00
65614;BME280;52283;49.292;10.572;2023-07-20T05:28:47;96378.31;;;16.79;100.00
65614;BME280;52283;49.292;10.572;2023-07-20T05:31:15;96378.97;;;16.58;100.00
65614;BME280;52283;49.292;10.572;2023-07-20T05:33:41;96380.69;;;16.61;100.00
65614;BME280;52283;49.292;10.572;2023-07-20T05:36:07;96382.56;;;16.72;100.00
65614;BME280;52283;49.292;10.572;2023-07-20T05:38:35;96377.53;;;16.78;100.00
65614;BME280;52283;49.292;10.572;2023-07-20T05:41:01;96372.69;;;16.99;100.00
65614;BME280;52283;49.292;10.572;2023-07-20T05:43:28;96377.19;;;16.82;100.00
65614;BME280;52283;49.292;10.572;2023-07-20T05:45:55;96376.00;;;16.90;100.00
65614;BME280;52283;49.292;10.572;2023-07-20T05:48:23;96385.84;;;16.97;100.00
65614;BME280;52283;49.292;10.572;2023-07-20T05:50:50;96384.13;;;16.94;100.00
65614;BME280;52283;49.292;10.572;2023-07-20T05:53:16;96381.38;;;17.01;100.00
65614;BME280;52283;49.292;10.572;2023-07-20T05:55:43;96379.31;;;17.02;100.00
65614;BME280;52283;49.292;10.572;2023-07-20T05:58:09;96381.88;;;17.13;100.00
65614;BME280;52283;49.292;10.572;2023-07-20T06:00:36;96381.25;;;17.28;100.00
65614;BME280;52283;49.292;10.572;2023-07-20T06:03:02;96383.03;;;17.18;100.00
65614;BME280;52283;49.292;10.572;2023-07-20T06:05:30;96386.38;;;17.29;100.00
65614;BME280;52283;49.292;10.572;2023-07-20T06:07:57;96382.09;;;17.36;100.00
65614;BME280;52283;49.292;10.572;2023-07-20T06:10:25;96385.53;;;17.42;100.00
65614;BME280;52283;49.292;10.572;2023-07-20T06:12:52;96386.13;;;17.48;100.00
65614;BME280;52283;49.292;10.572;2023-07-20T06:15:27;96385.53;;;17.42;100.00
65614;BME280;52283;49.292;10.572;2023-07-20T06:17:54;96385.25;;;17.32;100.00
65614;BME280;52283;49.292;10.572;2023-07-20T06:20:21;96390.69;;;17.30;100.00
65614;BME280;52283;49.292;10.572;2023-07-20T06:22:49;96390.97;;;17.61;100.00
65614;BME280;52283;49.292;10.572;2023-07-20T06:25:16;96388.97;;;17.48;100.00
65614;BME280;52283;49.292;10.572;2023-07-20T06:27:42;96386.78;;;17.54;100.00
65614;BME280;52283;49.292;10.572;2023-07-20T06:30:10;96385.09;;;17.59;100.00
65614;BME280;52283;49.292;10.572;2023-07-20T06:32:37;96375.88;;;17.58;100.00
65614;BME280;52283;49.292;10.572;2023-07-20T06:35:05;96391.91;;;17.63;100.00
65614;BME280;52283;49.292;10.572;2023-07-20T06:37:31;96385.47;;;17.55;100.00
65614;BME280;52283;49.292;10.572;2023-07-20T06:39:59;96383.03;;;17.80;100.00
65614;BME280;52283;49.292;10.572;2023-07-20T06:42:26;96379.72;;;17.68;100.00
65614;BME280;52283;49.292;10.572;2023-07-20T06:44:52;96372.66;;;17.75;100.00
65614;BME280;52283;49.292;10.572;2023-07-20T06:47:18;96390.06;;;17.87;100.00
65614;BME280;52283;49.292;10.572;2023-07-20T06:49:45;96373.16;;;17.94;100.00
65614;BME280;52283;49.292;10.572;2023-07-20T06:52:11;96375.31;;;18.09;100.00
65614;BME280;52283;49.292;10.572;2023-07-20T06:54:38;96379.13;;;18.12;100.00
65614;BME280;52283;49.292;10.572;2023-07-20T06:57:06;96381.16;;;18.11;100.00
65614;BME280;52283;49.292;10.572;2023-07-20T06:59:33;96363.88;;;18.22;100.00
65614;BME280;52283;49.292;10.572;2023-07-20T07:01:59;96363.88;;;18.58;98.87
65614;BME280;52283;49.292;10.572;2023-07-20T07:04:26;96359.59;;;18.65;95.18
65614;BME280;52283;49.292;10.572;2023-07-20T07:06:53;96366.81;;;18.81;95.07
65614;BME280;52283;49.292;10.572;2023-07-20T07:09:20;96373.03;;;18.36;95.76
65614;BME280;52283;49.292;10.572;2023-07-20T07:11:47;96362.50;;;18.44;96.65
65614;BME280;52283;49.292;10.572;2023-07-20T07:14:14;96363.41;;;18.83;93.01
65614;BME280;52283;49.292;10.572;2023-07-20T07:16:41;96363.06;;;18.94;90.48
65614;BME280;52283;49.292;10.572;2023-07-20T07:19:07;96358.63;;;18.63;90.62
65614;BME280;52283;49.292;10.572;2023-07-20T07:21:34;96362.47;;;18.80;89.25
65614;BME280;52283;49.292;10.572;2023-07-20T07:24:00;96364.94;;;18.92;87.72
65614;BME280;52283;49.292;10.572;2023-07-20T07:26:27;96360.81;;;19.00;84.95
65614;BME280;52283;49.292;10.572;2023-07-20T07:28:53;96362.72;;;19.05;85.02
65614;BME280;52283;49.292;10.572;2023-07-20T07:31:21;96360.88;;;19.38;83.65
65614;BME280;52283;49.292;10.572;2023-07-20T07:33:48;96360.13;;;19.91;81.15
65614;BME280;52283;49.292;10.572;2023-07-20T07:36:15;96368.63;;;19.45;82.52
65614;BME280;52283;49.292;10.572;2023-07-20T07:38:41;96355.59;;;19.50;82.68
65614;BME280;52283;49.292;10.572;2023-07-20T07:41:08;96348.06;;;19.83;80.52
65614;BME280;52283;49.292;10.572;2023-07-20T07:43:34;96346.25;;;20.18;78.63
65614;BME280;52283;49.292;10.572;2023-07-20T07:46:01;96348.75;;;20.22;78.43
65614;BME280;52283;49.292;10.572;2023-07-20T07:48:30;96355.00;;;20.05;78.19
65614;BME280;52283;49.292;10.572;2023-07-20T07:50:56;96354.97;;;19.13;81.19
65614;BME280;52283;49.292;10.572;2023-07-20T07:53:23;96365.22;;;19.39;80.52
65614;BME280;52283;49.292;10.572;2023-07-20T07:55:51;96352.19;;;19.90;78.71
65614;BME280;52283;49.292;10.572;2023-07-20T07:58:18;96352.34;;;20.07;75.84
65614;BME280;52283;49.292;10.572;2023-07-20T08:00:44;96357.66;;;19.49;77.32
65614;BME280;52283;49.292;10.572;2023-07-20T08:03:13;96345.91;;;20.14;72.93
65614;BME280;52283;49.292;10.572;2023-07-20T08:05:41;96331.56;;;21.00;69.92
65614;BME280;52283;49.292;10.572;2023-07-20T08:08:07;96327.47;;;21.18;66.87
65614;BME280;52283;49.292;10.572;2023-07-20T08:10:34;96333.03;;;21.09;69.19
65614;BME280;52283;49.292;10.572;2023-07-20T08:13:01;96352.03;;;19.72;72.65
65614;BME280;52283;49.292;10.572;2023-07-20T08:15:27;96353.69;;;19.53;75.09
65614;BME280;52283;49.292;10.572;2023-07-20T08:17:54;96341.69;;;20.46;71.36
65614;BME280;52283;49.292;10.572;2023-07-20T08:20:21;96336.28;;;20.09;71.21
65614;BME280;52283;49.292;10.572;2023-07-20T08:22:53;96343.13;;;19.84;72.96
65614;BME280;52283;49.292;10.572;2023-07-20T08:25:20;96349.75;;;19.40;74.26
65614;BME280;52283;49.292;10.572;2023-07-20T08:27:47;96352.19;;;19.52;75.04
65614;BME280;52283;49.292;10.572;2023-07-20T08:30:13;96351.06;;;19.55;75.22
65614;BME280;52283;49.292;10.572;2023-07-20T08:32:40;96354.84;;;19.49;76.19
65614;BME280;52283;49.292;10.572;2023-07-20T08:35:07;96360.28;;;19.32;75.05
65614;BME280;52283;49.292;10.572;2023-07-20T08:37:33;96348.44;;;19.57;71.98
65614;BME280;52283;49.292;10.572;2023-07-20T08:40:01;96328.34;;;21.04;64.95
65614;BME280;52283;49.292;10.572;2023-07-20T08:42:34;96320.84;;;21.48;62.21
65614;BME280;52283;49.292;10.572;2023-07-20T08:45:05;96321.84;;;21.11;63.60
65614;BME280;52283;49.292;10.572;2023-07-20T08:47:33;96332.16;;;21.31;63.55
65614;BME280;52283;49.292;10.572;2023-07-20T08:50:00;96339.28;;;20.12;64.64
65614;BME280;52283;49.292;10.572;2023-07-20T08:52:33;96347.31;;;19.67;68.15
65614;BME280;52283;49.292;10.572;2023-07-20T08:55:01;96351.25;;;19.49;69.45
65614;BME280;52283;49.292;10.572;2023-07-20T08:57:30;96354.06;;;19.95;68.24
65614;BME280;52283;49.292;10.572;2023-07-20T08:59:58;96340.56;;;20.81;64.33
65614;BME280;52283;49.292;10.572;2023-07-20T09:02:26;96335.06;;;20.43;62.67
65614;BME280;52283;49.292;10.572;2023-07-20T09:04:53;96350.88;;;19.75;66.48
65614;BME280;52283;49.292;10.572;2023-07-20T09:07:20;96341.03;;;19.92;65.00
65614;BME280;52283;49.292;10.572;2023-07-20T09:09:46;96332.31;;;20.68;61.39
65614;BME280;52283;49.292;10.572;2023-07-20T09:12:14;96324.75;;;21.03;60.21
65614;BME280;52283;49.292;10.572;2023-07-20T09:14:43;96331.16;;;21.36;57.66
65614;BME280;52283;49.292;10.572;2023-07-20T09:17:12;96315.38;;;21.68;56.41
65614;BME280;52283;49.292;10.572;2023-07-20T09:19:42;96309.97;;;21.97;55.73
65614;BME280;52283;49.292;10.572;2023-07-20T09:22:11;96318.56;;;21.72;55.64
65614;BME280;52283;49.292;10.572;2023-07-20T09:24:38;96312.91;;;22.06;55.04
65614;BME280;52283;49.292;10.572;2023-07-20T09:27:04;96303.63;;;22.06;55.12
65614;BME280;52283;49.292;10.572;2023-07-20T09:29:32;96317.69;;;22.38;53.47
65614;BME280;52283;49.292;10.572;2023-07-20T09:31:59;96318.16;;;21.92;56.19
65614;BME280;52283;49.292;10.572;2023-07-20T09:34:27;96316.22;;;21.78;56.33
65614;BME280;52283;49.292;10.572;2023-07-20T09:36:54;96316.41;;;21.55;54.04
65614;BME280;52283;49.292;10.572;2023-07-20T09:39:21;96314.19;;;21.71;53.77
65614;BME280;52283;49.292;10.572;2023-07-20T09:41:48;96307.97;;;21.89;52.81
65614;BME280;52283;49.292;10.572;2023-07-20T09:44:15;96297.00;;;22.03;52.68
65614;BME280;52283;49.292;10.572;2023-07-20T09:46:45;96302.94;;;22.49;50.59
65614;BME280;52283;49.292;10.572;2023-07-20T09:49:12;96297.97;;;22.67;49.15
65614;BME280;52283;49.292;10.572;2023-07-20T09:51:38;96294.50;;;22.25;49.95
65614;BME280;52283;49.292;10.572;2023-07-20T09:54:06;96309.88;;;21.45;52.77
65614;BME280;52283;49.292;10.572;2023-07-20T09:56:34;96310.44;;;21.85;51.02
65614;BME280;52283;49.292;10.572;2023-07-20T09:59:01;96294.91;;;22.56;49.08
65614;BME280;52283;49.292;10.572;2023-07-20T10:01:29;96300.72;;;22.31;49.12
65614;BME280;52283;49.292;10.572;2023-07-20T10:03:58;96301.88;;;20.93;51.46
65614;BME280;52283;49.292;10.572;2023-07-20T10:06:28;96298.44;;;21.52;49.50
65614;BME280;52283;49.292;10.572;2023-07-20T10:09:01;96299.31;;;21.38;49.55
65614;BME280;52283;49.292;10.572;2023-07-20T10:11:30;96302.50;;;21.67;50.22
65614;BME280;52283;49.292;10.572;2023-07-20T10:13:59;96297.25;;;21.98;48.92
65614;BME280;52283;49.292;10.572;2023-07-20T10:16:28;96292.25;;;21.46;49.28
65614;BME280;52283;49.292;10.572;2023-07-20T10:19:03;96294.13;;;21.86;47.18
65614;BME280;52283;49.292;10.572;2023-07-20T10:21:32;96280.09;;;22.05;45.15
65614;BME280;52283;49.292;10.572;2023-07-20T10:24:00;96283.78;;;21.98;45.80
65614;BME280;52283;49.292;10.572;2023-07-20T10:26:27;96285.81;;;21.46;46.02
65614;BME280;52283;49.292;10.572;2023-07-20T10:28:55;96271.38;;;21.86;44.83
65614;BME280;52283;49.292;10.572;2023-07-20T10:31:22;96284.34;;;21.97;45.58
65614;BME280;52283;49.292;10.572;2023-07-20T10:33:50;96261.88;;;22.70;42.01
65614;BME280;52283;49.292;10.572;2023-07-20T10:36:24;96275.00;;;22.38;43.34
65614;BME280;52283;49.292;10.572;2023-07-20T10:41:20;96256.03;;;22.95;42.04
65614;BME280;52283;49.292;10.572;2023-07-20T10:43:47;96250.59;;;23.82;41.28
65614;BME280;52283;49.292;10.572;2023-07-20T10:46:14;96231.50;;;23.65;38.09
65614;BME280;52283;49.292;10.572;2023-07-20T10:49:00;96249.94;;;22.54;39.56
65614;BME280;52283;49.292;10.572;2023-07-20T10:51:28;96250.59;;;22.45;40.63
65614;BME280;52283;49.292;10.572;2023-07-20T10:53:55;96247.66;;;22.08;41.71
65614;BME280;52283;49.292;10.572;2023-07-20T10:56:26;96250.13;;;22.66;41.84
65614;BME280;52283;49.292;10.572;2023-07-20T10:58:57;96256.69;;;22.32;42.11
65614;BME280;52283;49.292;10.572;2023-07-20T11:01:27;96246.97;;;22.62;42.18
65614;BME280;52283;49.292;10.572;2023-07-20T11:03:57;96240.81;;;23.19;41.98
65614;BME280;52283;49.292;10.572;2023-07-20T11:06:33;96231.00;;;23.03;42.45
65614;BME280;52283;49.292;10.572;2023-07-20T11:09:05;96234.84;;;23.81;41.14
65614;BME280;52283;49.292;10.572;2023-07-20T11:11:33;96222.88;;;23.46;40.46
65614;BME280;52283;49.292;10.572;2023-07-20T11:14:01;96225.59;;;23.43;40.51
65614;BME280;52283;49.292;10.572;2023-07-20T11:16:35;96229.13;;;22.88;40.56
65614;BME280;52283;49.292;10.572;2023-07-20T11:19:02;96225.91;;;22.74;41.03
65614;BME280;52283;49.292;10.572;2023-07-20T11:21:31;96244.28;;;22.02;42.80
65614;BME280;52283;49.292;10.572;2023-07-20T11:24:03;96247.94;;;21.78;43.64
65614;BME280;52283;49.292;10.572;2023-07-20T11:26:29;96237.38;;;22.84;42.40
65614;BME280;52283;49.292;10.572;2023-07-20T11:28:56;96235.50;;;23.06;41.92
65614;BME280;52283;49.292;10.572;2023-07-20T11:31:22;96234.72;;;23.32;42.25
65614;BME280;52283;49.292;10.572;2023-07-20T11:33:49;96233.94;;;22.86;42.96
65614;BME280;52283;49.292;10.572;2023-07-20T11:36:15;96238.97;;;22.50;43.46
65614;BME280;52283;49.292;10.572;2023-07-20T11:38:43;96230.69;;;22.99;42.62
65614;BME280;52283;49.292;10.572;2023-07-20T11:41:10;96231.59;;;23.38;42.95
65614;BME280;52283;49.292;10.572;2023-07-20T11:43:38;96226.44;;;23.83;41.41
65614;BME280;52283;49.292;10.572;2023-07-20T11:46:05;96215.91;;;23.76;40.50
65614;BME280;52283;49.292;10.572;2023-07-20T11:48:32;96228.59;;;22.99;40.25
65614;BME280;52283;49.292;10.572;2023-07-20T11:50:58;96203.31;;;24.17;38.50
65614;BME280;52283;49.292;10.572;2023-07-20T11:53:25;96206.09;;;24.66;37.30
65614;BME280;52283;49.292;10.572;2023-07-20T11:55:53;96199.97;;;23.72;38.81
65614;BME280;52283;49.292;10.572;2023-07-20T11:58:20;96204.44;;;22.91;39.77
65614;BME280;52283;49.292;10.572;2023-07-20T12:00:47;96206.56;;;22.46;40.74
65614;BME280;52283;49.292;10.572;2023-07-20T12:03:13;96216.56;;;22.64;41.77
65614;BME280;52283;49.292;10.572;2023-07-20T12:05:40;96207.94;;;22.28;41.40
65614;BME280;52283;49.292;10.572;2023-07-20T12:08:07;96201.41;;;22.89;40.82
65614;BME280;52283;49.292;10.572;2023-07-20T12:10:33;96189.06;;;23.13;39.17
65614;BME280;52283;49.292;10.572;2023-07-20T12:13:04;96192.53;;;23.31;38.72
65614;BME280;52283;49.292;10.572;2023-07-20T12:15:32;96179.72;;;24.17;37.11
65614;BME280;52283;49.292;10.572;2023-07-20T12:18:00;96184.34;;;24.41;37.21
65614;BME280;52283;49.292;10.572;2023-07-20T12:20:28;96170.09;;;24.22;36.36
65614;BME280;52283;49.292;10.572;2023-07-20T12:22:58;96183.59;;;24.12;36.09
65614;BME280;52283;49.292;10.572;2023-07-20T12:25:32;96173.84;;;24.15;35.29
65614;BME280;52283;49.292;10.572;2023-07-20T12:28:00;96179.69;;;24.26;36.03
65614;BME280;52283;49.292;10.572;2023-07-20T12:30:29;96171.44;;;25.21;35.53
65614;BME280;52283;49.292;10.572;2023-07-20T12:32:55;96164.91;;;25.31;34.26
65614;BME280;52283;49.292;10.572;2023-07-20T12:35:22;96149.22;;;25.84;32.70
65614;BME280;52283;49.292;10.572;2023-07-20T12:37:48;96155.06;;;25.43;33.79
65614;BME280;52283;49.292;10.572;2023-07-20T12:40:16;96160.88;;;24.93;35.16
65614;BME280;52283;49.292;10.572;2023-07-20T12:42:45;96159.72;;;25.17;33.63
65614;BME280;52283;49.292;10.572;2023-07-20T12:45:14;96143.03;;;24.42;33.45
65614;BME280;52283;49.292;10.572;2023-07-20T12:47:42;96155.53;;;24.18;35.04
65614;BME280;52283;49.292;10.572;2023-07-20T12:50:09;96160.63;;;24.29;34.56